Time;durP1;ratioP1;P1;durP2;ratioP2;P2;SDS_P1;SDS_P2;PMS_P1;PMS_P2;Temp;Humidity;BMP_temperature;BMP_pressure;BME280_temperature;BME280_humidity;BME280_pressure;Samples;Min_cycle;Max_cycle;Signal;HPM_P1;HPM_P2
2022/08/04 00:00:51;;;;;;;1.50;1.25;;;22.00;62.90;;;;;;5003246;28;20034;-64
2022/08/04 00:03:23;;;;;;;2.67;1.50;;;22.00;63.50;;;;;;5005280;28;20081;-62
2022/08/04 00:06:09;;;;;;;2.95;1.50;;;21.90;63.70;;;;;;5006215;28;20079;-64
2022/08/04 00:08:44;;;;;;;2.33;1.38;;;21.90;63.50;;;;;;5007806;28;20058;-64
2022/08/04 00:11:18;;;;;;;2.60;1.45;;;21.80;62.60;;;;;;5003291;28;20052;-63
2022/08/04 00:13:59;;;;;;;2.30;1.27;;;21.80;62.70;;;;;;5007130;28;20096;-64
2022/08/04 00:16:28;;;;;;;3.42;1.30;;;21.70;62.90;;;;;;5001174;28;20038;-63
2022/08/04 00:19:02;;;;;;;1.90;1.33;;;21.60;63.10;;;;;;5001600;28;20033;-63
2022/08/04 00:21:30;;;;;;;1.48;1.33;;;21.60;63.60;;;;;;5006575;28;20085;-63
2022/08/04 00:23:57;;;;;;;1.42;1.15;;;21.50;63.70;;;;;;5006664;28;20968;-62
2022/08/04 00:26:24;;;;;;;1.25;1.17;;;21.50;63.70;;;;;;5005385;28;20041;-63
2022/08/04 00:28:50;;;;;;;2.35;1.23;;;21.50;64.00;;;;;;5004593;28;20034;-64
2022/08/04 00:31:16;;;;;;;2.05;1.50;;;21.50;64.20;;;;;;5004474;28;20034;-63
2022/08/04 00:33:44;;;;;;;1.40;1.30;;;21.50;64.10;;;;;;5001940;28;20034;-63
2022/08/04 00:36:13;;;;;;;2.03;1.30;;;21.50;64.30;;;;;;5001607;28;20042;-63
2022/08/04 00:38:43;;;;;;;3.08;1.40;;;21.50;65.00;;;;;;5006811;28;20030;-64
2022/08/04 00:41:29;;;;;;;1.58;1.10;;;21.40;65.10;;;;;;5007046;28;20157;-63
2022/08/04 00:44:14;;;;;;;2.05;1.38;;;21.40;65.40;;;;;;5002952;28;20030;-63
2022/08/04 00:46:58;;;;;;;1.95;1.35;;;21.40;64.60;;;;;;5002237;28;20033;-64
2022/08/04 00:49:24;;;;;;;5.18;1.45;;;21.40;65.00;;;;;;5004398;28;20542;-62
2022/08/04 00:52:04;;;;;;;3.30;1.60;;;21.40;64.40;;;;;;5003804;28;20541;-63
2022/08/04 00:54:29;;;;;;;3.80;1.23;;;21.40;65.00;;;;;;5007192;28;20505;-63
2022/08/04 00:57:01;;;;;;;2.70;1.40;;;21.30;65.50;;;;;;5007632;28;20038;-63
2022/08/04 00:59:48;;;;;;;1.73;1.40;;;21.30;64.50;;;;;;5008875;28;20045;-63
2022/08/04 01:02:30;;;;;;;1.83;1.20;;;21.30;64.90;;;;;;5001899;28;20049;-63
2022/08/04 01:05:20;;;;;;;1.55;1.40;;;21.30;65.80;;;;;;5009928;28;20205;-62
2022/08/04 01:07:57;;;;;;;3.05;1.33;;;21.30;65.70;;;;;;5000960;28;20517;-61
2022/08/04 01:10:42;;;;;;;2.38;1.35;;;21.30;65.00;;;;;;5003237;28;20049;-63
2022/08/04 01:13:29;;;;;;;2.83;1.65;;;21.30;64.90;;;;;;5007995;28;20034;-63
2022/08/04 01:16:06;;;;;;;2.60;1.45;;;21.30;65.80;;;;;;5003847;28;20053;-63
2022/08/04 01:19:17;;;;;;;1.27;1.17;;;21.30;65.40;;;;;;5005472;28;20037;-63
2022/08/04 01:22:05;;;;;;;3.60;1.50;;;21.20;65.50;;;;;;4979057;28;20049;-63
2022/08/04 01:25:18;;;;;;;3.10;1.30;;;21.10;65.50;;;;;;5003592;28;20026;-63
2022/08/04 01:28:05;;;;;;;3.42;1.67;;;21.10;65.90;;;;;;4974049;28;20030;-63
2022/08/04 01:30:32;;;;;;;4.30;1.75;;;21.10;65.20;;;;;;5004460;28;20029;-63
2022/08/04 01:33:10;;;;;;;2.42;1.35;;;21.00;65.00;;;;;;5003833;28;20490;-63
2022/08/04 01:35:52;;;;;;;3.60;1.38;;;21.00;66.10;;;;;;5004917;28;20525;-63
2022/08/04 01:38:18;;;;;;;3.92;1.65;;;20.90;66.20;;;;;;5007570;28;20042;-63
2022/08/04 01:40:45;;;;;;;2.58;1.42;;;20.90;65.60;;;;;;5009266;28;20045;-63
2022/08/04 01:43:13;;;;;;;2.28;1.60;;;20.80;66.00;;;;;;5010783;28;20484;-63
2022/08/04 01:45:40;;;;;;;2.65;1.58;;;20.80;66.40;;;;;;5009026;28;20693;-61
2022/08/04 01:48:07;;;;;;;2.40;1.52;;;20.70;66.60;;;;;;5007999;28;20034;-63
2022/08/04 01:50:34;;;;;;;2.75;1.55;;;20.70;66.60;;;;;;5015632;28;20041;-62
2022/08/04 01:53:01;;;;;;;1.65;1.55;;;20.60;66.80;;;;;;5005588;28;20041;-63
2022/08/04 01:55:29;;;;;;;2.35;1.50;;;20.60;67.00;;;;;;5010840;28;20060;-63
2022/08/04 01:57:59;;;;;;;1.73;1.63;;;20.60;67.10;;;;;;5007739;28;20034;-63
2022/08/04 02:00:27;;;;;;;2.53;1.50;;;20.60;67.40;;;;;;5010227;28;20045;-63
2022/08/04 02:02:55;;;;;;;1.48;1.35;;;20.60;67.10;;;;;;5008081;28;20046;-63
2022/08/04 02:05:23;;;;;;;1.60;1.50;;;20.60;67.10;;;;;;5008526;28;20042;-62
2022/08/04 02:08:12;;;;;;;3.50;1.67;;;20.60;67.30;;;;;;5011687;28;20037;-63
2022/08/04 02:10:41;;;;;;;2.20;1.60;;;20.60;67.60;;;;;;5010124;28;20052;-63
2022/08/04 02:13:33;;;;;;;1.70;1.60;;;20.60;66.90;;;;;;5012792;28;20442;-63
2022/08/04 02:16:14;;;;;;;2.83;1.52;;;20.50;67.60;;;;;;5011269;28;20518;-63
2022/08/04 02:19:04;;;;;;;5.05;1.65;;;20.50;67.60;;;;;;5014819;28;20420;-63
2022/08/04 02:21:31;;;;;;;1.73;1.63;;;20.50;67.80;;;;;;5012632;28;20363;-63
2022/08/04 02:24:11;;;;;;;1.95;1.75;;;20.40;67.10;;;;;;5013657;28;20038;-63
2022/08/04 02:26:40;;;;;;;1.95;1.83;;;20.40;68.40;;;;;;5010423;28;20103;-63
2022/08/04 02:29:23;;;;;;;2.97;1.98;;;20.40;67.40;;;;;;5014054;28;20340;-63
2022/08/04 02:32:00;;;;;;;4.97;1.60;;;20.40;68.30;;;;;;5012866;28;20531;-62
2022/08/04 02:34:46;;;;;;;6.47;1.77;;;20.30;68.00;;;;;;5012980;28;20477;-62
2022/08/04 02:37:16;;;;;;;4.82;1.48;;;20.30;68.00;;;;;;5011696;28;20061;-62
2022/08/04 02:39:43;;;;;;;1.98;1.60;;;20.30;68.00;;;;;;5009519;28;20116;-63
2022/08/04 02:42:11;;;;;;;2.33;1.70;;;20.20;67.80;;;;;;5012309;28;20041;-63
2022/08/04 02:44:38;;;;;;;2.15;1.63;;;20.20;68.10;;;;;;5009965;28;20026;-62
2022/08/04 02:47:06;;;;;;;2.22;1.80;;;20.10;68.50;;;;;;5012743;28;20034;-62
2022/08/04 02:49:35;;;;;;;2.03;1.45;;;20.10;68.30;;;;;;5013360;28;20418;-63
2022/08/04 02:52:02;;;;;;;1.60;1.45;;;20.10;68.80;;;;;;5012242;28;20060;-62
2022/08/04 02:54:32;;;;;;;1.80;1.55;;;20.10;68.50;;;;;;5015207;28;20088;-63
2022/08/04 02:57:00;;;;;;;2.15;1.52;;;20.10;68.80;;;;;;5015844;28;20034;-62
2022/08/04 02:59:28;;;;;;;2.10;1.80;;;20.10;68.70;;;;;;5016602;28;20119;-63
2022/08/04 03:01:56;;;;;;;1.88;1.77;;;20.10;68.80;;;;;;5015246;28;20060;-62
2022/08/04 03:04:43;;;;;;;2.65;1.70;;;20.10;69.00;;;;;;5018630;28;20034;-62
2022/08/04 03:07:11;;;;;;;3.85;1.90;;;20.10;68.90;;;;;;5014939;28;20038;-63
2022/08/04 03:10:08;;;;;;;1.65;1.52;;;20.00;68.80;;;;;;5016760;28;20037;-62
2022/08/04 03:12:43;;;;;;;2.38;1.60;;;20.00;70.10;;;;;;5005060;28;20041;-62
2022/08/04 03:15:39;;;;;;;2.10;1.63;;;20.00;69.70;;;;;;5015010;28;20045;-63
2022/08/04 03:18:20;;;;;;;3.00;1.90;;;20.00;69.80;;;;;;5015448;28;20037;-63
2022/08/04 03:21:17;;;;;;;2.20;2.00;;;20.00;70.20;;;;;;5016980;28;20080;-63
2022/08/04 03:24:04;;;;;;;2.65;1.88;;;19.90;70.30;;;;;;5012937;28;20041;-62
2022/08/04 03:27:07;;;;;;;2.50;1.73;;;19.90;69.50;;;;;;5010962;28;20029;-63
2022/08/04 03:30:07;;;;;;;3.25;1.95;;;19.90;70.50;;;;;;5014702;28;20495;-63
2022/08/04 03:32:42;;;;;;;2.10;1.92;;;19.90;70.10;;;;;;5011470;28;20041;-62
2022/08/04 03:35:35;;;;;;;5.57;2.20;;;19.80;69.40;;;;;;5013835;28;20045;-63
2022/08/04 03:38:38;;;;;;;3.65;1.73;;;19.80;70.20;;;;;;5011968;28;20053;-63
2022/08/04 03:41:32;;;;;;;4.32;1.90;;;19.80;70.20;;;;;;4985669;28;20074;-62
2022/08/04 03:44:32;;;;;;;2.50;1.70;;;19.70;70.60;;;;;;5011837;28;20030;-63
2022/08/04 03:47:09;;;;;;;3.03;1.88;;;19.70;70.70;;;;;;5009203;28;20424;-63
2022/08/04 03:50:13;;;;;;;2.00;1.80;;;19.70;70.00;;;;;;5011336;28;20030;-63
2022/08/04 03:53:08;;;;;;;3.42;1.50;;;19.70;70.90;;;;;;5010161;28;20536;-63
2022/08/04 03:56:12;;;;;;;1.95;1.80;;;19.70;70.30;;;;;;5011031;28;20441;-63
2022/08/04 03:58:46;;;;;;;3.08;1.73;;;19.70;70.90;;;;;;5016710;28;20037;-63
2022/08/04 04:01:14;;;;;;;1.73;1.60;;;19.70;70.20;;;;;;5013974;28;20034;-62
2022/08/04 04:04:16;;;;;;;2.40;1.70;;;19.80;70.00;;;;;;5012669;28;20100;-63
2022/08/04 04:07:05;;;;;;;4.13;1.50;;;19.80;70.80;;;;;;5011303;28;20472;-63
2022/08/04 04:09:49;;;;;;;3.25;1.60;;;19.80;70.40;;;;;;5007666;28;20064;-62
2022/08/04 04:12:29;;;;;;;2.45;1.58;;;19.80;70.20;;;;;;5007582;28;20557;-63
2022/08/04 04:15:09;;;;;;;2.60;1.80;;;19.90;70.20;;;;;;5006514;28;20048;-63
2022/08/04 04:17:38;;;;;;;3.15;2.10;;;19.90;70.60;;;;;;5003774;28;20152;-63
2022/08/04 04:20:12;;;;;;;3.03;1.90;;;19.90;70.00;;;;;;5002652;28;20388;-62
2022/08/04 04:23:09;;;;;;;2.55;1.80;;;19.90;70.40;;;;;;4997173;28;20092;-63
2022/08/04 04:25:50;;;;;;;4.47;1.92;;;19.90;70.70;;;;;;4990730;28;20042;-63
2022/08/04 04:29:06;;;;;;;3.78;1.60;;;19.90;70.20;;;;;;5005969;28;20034;-62
2022/08/04 04:31:50;;;;;;;1.80;1.70;;;19.90;71.00;;;;;;4982490;28;20052;-62
2022/08/04 04:34:21;;;;;;;2.15;1.73;;;19.90;70.60;;;;;;5000484;28;20085;-62
2022/08/04 04:37:20;;;;;;;2.08;1.88;;;19.90;70.50;;;;;;5004043;28;20034;-62
2022/08/04 04:40:07;;;;;;;7.22;1.90;;;19.80;71.30;;;;;;5007658;28;20118;-62
2022/08/04 04:43:03;;;;;;;2.00;1.90;;;19.80;70.60;;;;;;5005835;28;20041;-63
2022/08/04 04:45:31;;;;;;;2.55;1.83;;;19.80;70.70;;;;;;5007797;28;20425;-63
2022/08/04 04:48:05;;;;;;;2.53;1.70;;;19.80;70.70;;;;;;5007003;28;20117;-63
2022/08/04 04:51:19;;;;;;;2.00;1.77;;;19.70;71.30;;;;;;5008650;28;20034;-62
2022/08/04 04:54:21;;;;;;;1.92;1.73;;;19.70;71.60;;;;;;4987134;28;20045;-62
2022/08/04 04:56:59;;;;;;;1.85;1.73;;;19.70;71.50;;;;;;4978443;28;20041;-62
2022/08/04 04:59:32;;;;;;;3.03;1.90;;;19.70;71.30;;;;;;5005624;28;20065;-61
2022/08/04 05:02:10;;;;;;;6.72;2.30;;;19.70;71.60;;;;;;5005938;28;20065;-61
2022/08/04 05:04:50;;;;;;;3.40;2.25;;;19.70;72.10;;;;;;5006673;28;20036;-62
2022/08/04 05:07:24;;;;;;;4.07;2.33;;;19.70;72.10;;;;;;5003643;28;20057;-62
2022/08/04 05:10:22;;;;;;;2.50;2.30;;;19.80;72.50;;;;;;5007023;28;20426;-64
2022/08/04 05:12:47;;;;;;;3.13;2.33;;;19.80;72.90;;;;;;5004742;28;20034;-62
2022/08/04 05:15:15;;;;;;;2.60;2.40;;;19.80;71.80;;;;;;5011694;28;20053;-62
2022/08/04 05:17:45;;;;;;;5.75;2.30;;;19.80;72.00;;;;;;5012498;28;20034;-62
2022/08/04 05:20:21;;;;;;;3.42;2.28;;;19.90;72.30;;;;;;5011095;28;20033;-63
2022/08/04 05:22:58;;;;;;;2.22;2.03;;;19.90;72.60;;;;;;5009672;28;20088;-61
2022/08/04 05:25:38;;;;;;;3.30;2.28;;;20.00;73.20;;;;;;5010611;28;20042;-62
2022/08/04 05:28:15;;;;;;;4.68;2.30;;;20.00;73.20;;;;;;5008828;28;20041;-62
2022/08/04 05:30:50;;;;;;;3.65;2.30;;;20.10;72.60;;;;;;5010131;28;20517;-62
2022/08/04 05:33:26;;;;;;;2.58;2.38;;;20.10;73.30;;;;;;5007469;28;20045;-61
2022/08/04 05:35:57;;;;;;;3.20;2.55;;;20.20;72.80;;;;;;5007032;28;20042;-61
2022/08/04 05:38:28;;;;;;;5.28;2.40;;;20.20;72.10;;;;;;5008219;28;20069;-62
2022/08/04 05:40:55;;;;;;;2.17;1.80;;;20.20;72.30;;;;;;5010256;28;20038;-61
2022/08/04 05:43:22;;;;;;;2.10;1.90;;;20.30;71.20;;;;;;5013110;28;20156;-62
2022/08/04 05:45:50;;;;;;;1.95;1.85;;;20.40;71.30;;;;;;5012013;28;20044;-62
2022/08/04 05:48:16;;;;;;;5.68;2.20;;;20.40;70.60;;;;;;5009049;28;20033;-61
2022/08/04 05:50:44;;;;;;;5.65;2.30;;;20.40;70.20;;;;;;5010193;28;20586;-62
2022/08/04 05:53:12;;;;;;;2.40;2.00;;;20.50;70.60;;;;;;5010872;28;20037;-62
2022/08/04 05:55:37;;;;;;;5.07;2.28;;;20.50;70.00;;;;;;5010275;28;20065;-62
2022/08/04 05:58:04;;;;;;;3.92;2.30;;;20.60;70.10;;;;;;5010303;28;20049;-61
2022/08/04 06:00:30;;;;;;;5.95;2.88;;;20.60;70.40;;;;;;5010201;28;20065;-62
2022/08/04 06:02:57;;;;;;;3.33;2.40;;;20.70;70.70;;;;;;5008981;28;20049;-62
2022/08/04 06:05:23;;;;;;;5.22;2.53;;;20.80;70.60;;;;;;5007684;28;20056;-62
2022/08/04 06:07:49;;;;;;;3.65;2.40;;;20.80;70.30;;;;;;5012192;28;20068;-62
2022/08/04 06:10:15;;;;;;;5.32;2.70;;;20.90;70.30;;;;;;5011853;28;20041;-62
2022/08/04 06:12:41;;;;;;;3.35;2.92;;;21.00;70.20;;;;;;5002300;28;20042;-62
2022/08/04 06:15:11;;;;;;;4.38;2.53;;;21.10;70.20;;;;;;5008485;28;20090;-62
2022/08/04 06:17:41;;;;;;;3.17;2.53;;;21.10;69.90;;;;;;5007782;28;20050;-62
2022/08/04 06:20:09;;;;;;;3.22;2.92;;;21.20;69.60;;;;;;5006091;28;20037;-62
2022/08/04 06:22:40;;;;;;;3.55;2.53;;;21.30;69.70;;;;;;5008288;28;20388;-62
2022/08/04 06:25:07;;;;;;;2.95;2.75;;;21.40;69.80;;;;;;5008333;28;20081;-62
2022/08/04 06:27:34;;;;;;;3.45;2.53;;;21.50;69.10;;;;;;5008652;28;20055;-62
2022/08/04 06:30:01;;;;;;;5.63;2.65;;;21.60;69.40;;;;;;5007663;28;20842;-62
2022/08/04 06:32:35;;;;;;;3.17;2.47;;;21.60;69.30;;;;;;5006928;28;20136;-62
2022/08/04 06:35:04;;;;;;;4.20;2.47;;;21.70;69.40;;;;;;5008159;28;20124;-62
2022/08/04 06:37:30;;;;;;;5.90;2.90;;;21.80;69.00;;;;;;5003815;28;20781;-62
2022/08/04 06:39:57;;;;;;;4.72;2.75;;;21.90;69.00;;;;;;5008159;28;20044;-61
2022/08/04 06:42:25;;;;;;;3.25;2.92;;;22.00;68.80;;;;;;5006769;28;20444;-61
2022/08/04 06:44:55;;;;;;;3.10;2.80;;;22.10;69.10;;;;;;5006753;28;20040;-63
2022/08/04 06:47:21;;;;;;;4.22;2.83;;;22.10;68.80;;;;;;5007548;28;20042;-62
2022/08/04 06:49:49;;;;;;;4.15;3.05;;;22.20;68.80;;;;;;5008635;28;20048;-62
2022/08/04 06:52:17;;;;;;;3.42;2.65;;;22.30;69.00;;;;;;5007429;28;20342;-63
2022/08/04 06:54:44;;;;;;;3.63;2.88;;;22.40;68.90;;;;;;5010288;28;20042;-63
2022/08/04 06:57:14;;;;;;;3.05;2.75;;;22.50;68.80;;;;;;5007244;28;20221;-61
2022/08/04 06:59:44;;;;;;;5.95;3.00;;;22.60;68.80;;;;;;5000090;28;20045;-62
2022/08/04 07:02:15;;;;;;;3.20;2.83;;;22.70;68.50;;;;;;5005195;28;20410;-62
2022/08/04 07:04:45;;;;;;;4.07;3.45;;;22.80;68.10;;;;;;5003610;28;20038;-64
2022/08/04 07:07:12;;;;;;;5.68;3.22;;;22.80;67.60;;;;;;5008019;28;20042;-62
2022/08/04 07:09:39;;;;;;;5.53;3.30;;;22.90;67.50;;;;;;5008479;28;20064;-63
2022/08/04 07:12:08;;;;;;;4.15;3.22;;;23.00;67.40;;;;;;5007016;28;20311;-64
2022/08/04 07:14:35;;;;;;;3.85;3.20;;;23.10;67.20;;;;;;5004067;28;20037;-62
2022/08/04 07:17:05;;;;;;;3.40;3.10;;;23.20;66.80;;;;;;5004706;28;20042;-62
2022/08/04 07:19:32;;;;;;;7.30;3.10;;;23.30;66.00;;;;;;5003184;28;20346;-62
2022/08/04 07:22:00;;;;;;;3.90;2.85;;;23.40;66.40;;;;;;5009596;28;20468;-63
2022/08/04 07:24:32;;;;;;;3.30;2.95;;;23.40;65.70;;;;;;5004421;28;20045;-63
2022/08/04 07:26:58;;;;;;;3.20;2.90;;;23.60;65.80;;;;;;5012988;28;20402;-63
2022/08/04 07:29:25;;;;;;;4.03;3.25;;;23.60;65.70;;;;;;5013092;28;20128;-62
2022/08/04 07:31:51;;;;;;;3.10;2.80;;;23.70;65.40;;;;;;5009011;28;20041;-63
2022/08/04 07:34:18;;;;;;;3.58;2.70;;;23.80;65.30;;;;;;5004552;28;20052;-63
2022/08/04 07:36:45;;;;;;;3.50;3.00;;;23.90;65.10;;;;;;4999201;28;20042;-63
2022/08/04 07:39:10;;;;;;;4.20;2.58;;;24.00;65.10;;;;;;5002208;28;20508;-64
2022/08/04 07:41:36;;;;;;;2.70;2.50;;;24.10;64.80;;;;;;5002349;28;20096;-63
2022/08/04 07:44:03;;;;;;;3.95;2.88;;;24.20;64.60;;;;;;5012670;28;20030;-64
2022/08/04 07:46:29;;;;;;;3.80;2.95;;;24.30;64.30;;;;;;5007855;28;20034;-62
2022/08/04 07:48:57;;;;;;;5.13;2.50;;;24.40;63.80;;;;;;5009598;28;20567;-62
2022/08/04 07:51:22;;;;;;;4.65;2.65;;;24.50;64.10;;;;;;5004982;28;20092;-63
2022/08/04 07:53:48;;;;;;;3.67;2.60;;;24.60;64.70;;;;;;5010066;28;20038;-63
2022/08/04 07:56:15;;;;;;;4.63;2.95;;;24.70;63.80;;;;;;5007505;28;20044;-63
2022/08/04 07:58:41;;;;;;;3.17;2.65;;;24.80;64.10;;;;;;5010289;28;20033;-63
2022/08/04 08:01:08;;;;;;;3.83;2.88;;;25.00;65.20;;;;;;5004470;28;20409;-64
2022/08/04 08:03:34;;;;;;;4.75;3.10;;;25.00;64.60;;;;;;4999558;28;20879;-64
2022/08/04 08:06:00;;;;;;;3.65;2.90;;;25.20;64.30;;;;;;5006351;28;20580;-63
2022/08/04 08:08:25;;;;;;;4.05;2.67;;;25.30;64.80;;;;;;5004830;28;20033;-64
2022/08/04 08:10:52;;;;;;;4.18;2.50;;;25.40;63.40;;;;;;4999248;28;20061;-63
2022/08/04 08:13:18;;;;;;;2.60;2.40;;;25.50;63.30;;;;;;5002869;28;20041;-62
2022/08/04 08:15:45;;;;;;;2.83;2.53;;;25.60;63.30;;;;;;5008073;28;20072;-64
2022/08/04 08:18:11;;;;;;;3.55;2.50;;;25.80;62.80;;;;;;5007032;28;20111;-63
2022/08/04 08:20:37;;;;;;;3.97;2.75;;;25.90;62.20;;;;;;5010114;28;20537;-64
2022/08/04 08:23:06;;;;;;;6.70;2.75;;;26.00;62.10;;;;;;5007691;28;20080;-65
2022/08/04 08:25:33;;;;;;;2.95;2.28;;;26.10;62.10;;;;;;5004749;28;20041;-65
2022/08/04 08:27:59;;;;;;;2.95;2.53;;;26.20;62.10;;;;;;5001328;28;20034;-63
2022/08/04 08:30:24;;;;;;;3.75;2.40;;;26.30;61.80;;;;;;5001388;28;20117;-64
2022/08/04 08:32:50;;;;;;;4.45;2.60;;;26.50;61.30;;;;;;5005964;28;20094;-62
2022/08/04 08:35:17;;;;;;;7.57;2.75;;;26.60;60.90;;;;;;5005192;28;20056;-63
2022/08/04 08:37:57;;;;;;;3.35;2.35;;;26.70;60.50;;;;;;5005711;28;20162;-63
2022/08/04 08:40:32;;;;;;;3.70;2.45;;;26.80;60.00;;;;;;5006632;28;20094;-64
2022/08/04 08:43:19;;;;;;;4.15;2.70;;;26.90;60.20;;;;;;5006775;28;20527;-63
2022/08/04 08:46:09;;;;;;;4.38;2.40;;;27.00;59.70;;;;;;5006677;28;20030;-63
2022/08/04 08:48:58;;;;;;;2.67;2.47;;;27.10;59.20;;;;;;5006328;28;20068;-63
2022/08/04 08:51:30;;;;;;;3.20;2.67;;;27.20;59.10;;;;;;5007640;28;20044;-63
2022/08/04 08:54:23;;;;;;;5.15;2.55;;;27.30;60.40;;;;;;5008930;28;20480;-64
2022/08/04 08:57:17;;;;;;;2.80;2.40;;;27.40;59.20;;;;;;5007714;28;20438;-63
2022/08/04 09:00:17;;;;;;;5.00;2.95;;;27.60;59.20;;;;;;5008469;28;20041;-64
2022/08/04 09:02:48;;;;;;;2.80;2.60;;;27.70;58.20;;;;;;5003846;28;20410;-63
2022/08/04 09:05:20;;;;;;;3.30;3.03;;;27.90;59.50;;;;;;5007394;28;20041;-64
2022/08/04 09:07:59;;;;;;;4.53;2.78;;;28.00;59.00;;;;;;5008976;28;20104;-64
2022/08/04 09:10:40;;;;;;;3.55;3.00;;;28.10;58.40;;;;;;5005221;28;20034;-63
2022/08/04 09:13:26;;;;;;;3.28;2.97;;;28.20;58.50;;;;;;5009833;28;20038;-65
2022/08/04 09:16:07;;;;;;;3.30;2.80;;;28.40;58.00;;;;;;5011112;28;20285;-63
2022/08/04 09:18:40;;;;;;;3.17;2.85;;;28.50;57.50;;;;;;5011666;28;20033;-63
2022/08/04 09:21:38;;;;;;;3.80;2.63;;;28.60;58.50;;;;;;5009808;28;20040;-63
2022/08/04 09:24:08;;;;;;;4.55;2.55;;;28.80;56.70;;;;;;5009542;28;20524;-64
2022/08/04 09:27:00;;;;;;;2.47;2.28;;;28.90;57.20;;;;;;4999496;28;20038;-63
2022/08/04 09:29:45;;;;;;;2.35;2.15;;;29.10;56.20;;;;;;5002247;28;20038;-61
2022/08/04 09:32:41;;;;;;;2.67;2.47;;;29.30;55.80;;;;;;5007757;28;20042;-62
2022/08/04 09:35:26;;;;;;;2.40;2.20;;;29.40;55.30;;;;;;5002460;28;20230;-63
2022/08/04 09:38:15;;;;;;;3.83;2.80;;;29.60;55.80;;;;;;5007856;28;20034;-63
2022/08/04 09:41:03;;;;;;;4.18;2.47;;;29.80;54.90;;;;;;5009290;28;20085;-61
2022/08/04 09:43:46;;;;;;;2.70;2.50;;;29.90;54.80;;;;;;5010978;28;20048;-63
2022/08/04 09:46:23;;;;;;;3.25;2.40;;;30.10;54.80;;;;;;5007175;28;20042;-62
2022/08/04 09:49:04;;;;;;;2.60;2.45;;;30.20;54.30;;;;;;4986874;28;20113;-62
2022/08/04 09:52:01;;;;;;;2.60;2.40;;;30.30;53.60;;;;;;4987712;28;20084;-62
2022/08/04 09:54:45;;;;;;;3.35;2.63;;;30.50;53.30;;;;;;4973151;28;20046;-63
2022/08/04 09:57:44;;;;;;;3.00;2.23;;;30.60;53.30;;;;;;5007348;28;20033;-63
2022/08/04 10:00:15;;;;;;;2.47;2.28;;;30.70;52.60;;;;;;5011119;28;20042;-63
2022/08/04 10:02:49;;;;;;;2.88;2.03;;;30.90;53.10;;;;;;5011229;28;20332;-62
2022/08/04 10:05:20;;;;;;;2.30;2.10;;;31.00;52.80;;;;;;5010418;28;20044;-63
2022/08/04 10:08:07;;;;;;;3.05;2.22;;;31.10;52.50;;;;;;5012313;28;20034;-63
2022/08/04 10:10:39;;;;;;;3.85;2.17;;;31.20;52.00;;;;;;5013984;28;20497;-63
2022/08/04 10:13:41;;;;;;;2.40;2.28;;;31.30;51.80;;;;;;5012947;28;20033;-62
2022/08/04 10:16:25;;;;;;;28.55;2.90;;;31.40;51.50;;;;;;5015426;28;20112;-63
2022/08/04 10:19:03;;;;;;;;;;;31.50;50.90;;;;;;4997632;28;20043;-61
2022/08/04 10:21:36;;;;;;;2.22;1.98;;;31.70;52.70;;;;;;4993873;28;19921;-62
2022/08/04 10:24:20;;;;;;;2.33;2.03;;;31.70;50.70;;;;;;4991431;28;20039;-62
2022/08/04 10:27:05;;;;;;;6.53;2.10;;;31.90;50.10;;;;;;4985738;28;20578;-63
2022/08/04 10:29:41;;;;;;;4.32;1.77;;;31.90;49.90;;;;;;4990219;28;20041;-63
2022/08/04 10:32:16;;;;;;;2.58;2.08;;;32.00;49.70;;;;;;4990771;28;20038;-63
2022/08/04 10:35:00;;;;;;;;;;;32.10;49.50;;;;;;4991663;28;20038;-61
2022/08/04 10:37:38;;;;;;;1.92;1.83;;;32.20;49.50;;;;;;4987962;28;19922;-62
2022/08/04 10:40:35;;;;;;;2.08;1.95;;;32.20;48.60;;;;;;4982665;28;20126;-65
2022/08/04 10:43:15;;;;;;;2.85;1.67;;;32.30;47.30;;;;;;4986094;28;20486;-62
2022/08/04 10:45:49;;;;;;;1.70;1.60;;;32.30;47.50;;;;;;4989307;28;20050;-63
2022/08/04 10:48:21;;;;;;;;;;;32.40;47.10;;;;;;4991730;28;20034;-63
2022/08/04 10:51:02;;;;;;;2.67;1.60;;;32.50;49.40;;;;;;4989138;28;19925;-62
2022/08/04 10:53:31;;;;;;;2.75;1.45;;;32.50;46.20;;;;;;4990223;28;20498;-62
2022/08/04 10:56:14;;;;;;;1.77;1.67;;;32.60;46.50;;;;;;4990670;28;20136;-63
2022/08/04 10:58:52;;;;;;;1.48;1.38;;;32.70;45.40;;;;;;4988867;28;20029;-63
2022/08/04 11:01:26;;;;;;;2.08;1.13;;;32.70;45.00;;;;;;4987510;28;20054;-63
2022/08/04 11:03:59;;;;;;;1.73;1.50;;;32.80;43.80;;;;;;4982797;28;20027;-63
2022/08/04 11:06:25;;;;;;;2.15;1.60;;;32.90;44.70;;;;;;4983352;28;20490;-64
2022/08/04 11:08:54;;;;;;;4.07;1.60;;;33.00;44.90;;;;;;4988170;28;20042;-63
2022/08/04 11:11:45;;;;;;;1.55;1.45;;;33.00;43.50;;;;;;4980078;28;20034;-62
2022/08/04 11:14:18;;;;;;;1.50;1.40;;;33.00;43.60;;;;;;4989261;28;20034;-64
2022/08/04 11:17:08;;;;;;;1.30;1.20;;;33.10;43.30;;;;;;4989867;28;20091;-63
2022/08/04 11:19:36;;;;;;;1.95;1.30;;;33.20;41.90;;;;;;4987912;28;20502;-63
2022/08/04 11:22:08;;;;;;;1.35;1.25;;;33.20;41.90;;;;;;4990093;28;20042;-64
2022/08/04 11:24:44;;;;;;;2.92;1.50;;;33.20;41.90;;;;;;4989248;28;20046;-64
2022/08/04 11:27:17;;;;;;;1.55;1.35;;;33.30;41.40;;;;;;4991281;28;20041;-64
2022/08/04 11:29:55;;;;;;;1.38;1.27;;;33.30;41.20;;;;;;4992374;28;20144;-63
2022/08/04 11:32:41;;;;;;;2.30;1.80;;;33.40;42.10;;;;;;4989410;28;20402;-61
2022/08/04 11:35:12;;;;;;;1.70;1.60;;;33.40;41.70;;;;;;4985681;28;20042;-63
2022/08/04 11:37:48;;;;;;;1.48;1.25;;;33.50;41.70;;;;;;4992624;28;20066;-63
2022/08/04 11:40:23;;;;;;;1.30;1.20;;;33.50;40.50;;;;;;4985086;28;20571;-64
2022/08/04 11:42:59;;;;;;;1.40;1.30;;;33.50;40.80;;;;;;4991095;28;20046;-64
2022/08/04 11:45:36;;;;;;;1.40;1.30;;;33.60;40.80;;;;;;4996092;28;20045;-63
2022/08/04 11:48:16;;;;;;;1.45;1.35;;;33.60;40.90;;;;;;5009673;28;20080;-63
2022/08/04 11:50:51;;;;;;;1.52;1.42;;;33.70;40.50;;;;;;5005124;28;20048;-62
2022/08/04 11:53:26;;;;;;;1.35;1.35;;;33.70;40.30;;;;;;5006779;28;20033;-63
2022/08/04 11:55:57;;;;;;;2.10;1.25;;;33.80;40.30;;;;;;5005268;28;20402;-64
2022/08/04 11:58:22;;;;;;;1.67;1.58;;;33.80;41.10;;;;;;5010715;28;20053;-63
2022/08/04 12:01:10;;;;;;;1.65;1.55;;;33.80;40.40;;;;;;5005406;28;20068;-64
2022/08/04 12:03:58;;;;;;;1.60;1.50;;;33.90;40.20;;;;;;5006680;28;20041;-63
2022/08/04 12:06:41;;;;;;;1.40;1.38;;;33.90;39.30;;;;;;5008535;28;20659;-62
2022/08/04 12:09:26;;;;;;;2.53;1.38;;;33.90;39.70;;;;;;5006670;28;20036;-64
2022/08/04 12:12:16;;;;;;;2.22;1.20;;;33.90;40.10;;;;;;5007171;28;20038;-63
2022/08/04 12:15:15;;;;;;;1.35;1.25;;;34.00;39.90;;;;;;5013044;28;20057;-63
2022/08/04 12:18:00;;;;;;;2.72;1.63;;;34.00;39.60;;;;;;5009585;28;20074;-64
2022/08/04 12:20:29;;;;;;;1.80;1.70;;;34.10;40.50;;;;;;5009340;28;20664;-62
2022/08/04 12:22:55;;;;;;;2.35;1.60;;;34.10;41.10;;;;;;5007914;28;20073;-63
2022/08/04 12:25:29;;;;;;;2.28;1.58;;;34.20;41.60;;;;;;5006329;28;20129;-65
2022/08/04 12:27:59;;;;;;;2.95;1.40;;;34.20;40.20;;;;;;5009659;28;20072;-64
2022/08/04 12:30:29;;;;;;;1.58;1.48;;;34.20;40.40;;;;;;5008070;28;20066;-63
2022/08/04 12:33:04;;;;;;;2.13;1.42;;;34.30;40.50;;;;;;5009047;28;20030;-64
2022/08/04 12:35:52;;;;;;;2.20;1.33;;;34.30;39.70;;;;;;5011082;28;20045;-64
2022/08/04 12:38:22;;;;;;;1.48;1.38;;;34.30;39.30;;;;;;5013340;28;20042;-63
2022/08/04 12:40:49;;;;;;;1.38;1.27;;;34.40;39.30;;;;;;5005698;28;20931;-62
2022/08/04 12:43:33;;;;;;;1.38;1.17;;;34.40;39.20;;;;;;5004659;28;20045;-64
2022/08/04 12:46:03;;;;;;;1.40;1.30;;;34.40;38.50;;;;;;5006787;28;20025;-63
2022/08/04 12:48:30;;;;;;;1.50;1.40;;;34.40;38.80;;;;;;5003474;28;20049;-63
2022/08/04 12:50:58;;;;;;;2.35;1.30;;;34.50;39.00;;;;;;5007922;28;20040;-63
2022/08/04 12:53:38;;;;;;;2.35;1.50;;;34.50;38.50;;;;;;5008007;28;20427;-64
2022/08/04 12:56:06;;;;;;;1.55;1.33;;;34.50;37.60;;;;;;5005608;28;20559;-63
2022/08/04 12:58:37;;;;;;;2.67;1.38;;;34.60;38.10;;;;;;5006119;28;20069;-63
2022/08/04 13:01:06;;;;;;;1.88;1.40;;;34.50;37.60;;;;;;4999998;28;20029;-63
2022/08/04 13:04:14;;;;;;;1.50;1.40;;;34.60;37.70;;;;;;4999991;28;20057;-61
2022/08/04 13:06:41;;;;;;;1.40;1.30;;;34.60;38.50;;;;;;4972003;28;20045;-64
2022/08/04 13:09:14;;;;;;;1.63;1.25;;;34.60;38.40;;;;;;5002903;28;20442;-61
2022/08/04 13:11:42;;;;;;;4.82;1.48;;;34.60;38.00;;;;;;5003353;28;20501;-62
2022/08/04 13:14:11;;;;;;;1.45;1.35;;;34.60;38.50;;;;;;5005621;28;20069;-63
2022/08/04 13:16:37;;;;;;;2.78;1.50;;;34.60;38.70;;;;;;5005806;28;20034;-63
2022/08/04 13:19:07;;;;;;;2.55;1.50;;;34.70;38.60;;;;;;5008300;28;20026;-62
2022/08/04 13:21:33;;;;;;;1.90;1.48;;;34.60;38.00;;;;;;5010668;28;20035;-63
2022/08/04 13:24:06;;;;;;;1.88;1.77;;;34.70;38.60;;;;;;5011382;28;20038;-62
2022/08/04 13:26:33;;;;;;;1.85;1.50;;;34.60;38.40;;;;;;5004865;28;20501;-62
2022/08/04 13:29:04;;;;;;;1.63;1.52;;;34.60;38.90;;;;;;5010178;28;20148;-64
2022/08/04 13:31:31;;;;;;;1.55;1.45;;;34.70;38.60;;;;;;5008838;28;20041;-63
2022/08/04 13:34:07;;;;;;;2.63;1.85;;;34.70;38.90;;;;;;5009128;28;20056;-63